Time;durP1;ratioP1;P1;durP2;ratioP2;P2;SDS_P1;SDS_P2;PMS_P1;PMS_P2;Temp;Humidity;BMP_temperature;BMP_pressure;BME280_temperature;BME280_humidity;BME280_pressure;Samples;Min_cycle;Max_cycle;Signal;HPM_P1;HPM_P2
2023/09/20 03:01:50;;;;;;;4.85;1.55;;;19.70;90.00;;;;;;5053470;28;20048;-81
2023/09/20 03:04:16;;;;;;;6.43;1.50;;;19.70;90.00;;;;;;5043977;28;20385;-81
2023/09/20 03:06:44;;;;;;;4.18;1.42;;;19.70;89.90;;;;;;5057314;28;20435;-82
2023/09/20 03:09:10;;;;;;;3.60;1.40;;;19.70;89.90;;;;;;5041103;28;20024;-81
2023/09/20 03:11:37;;;;;;;3.67;1.58;;;19.70;89.80;;;;;;5045517;28;20424;-82
2023/09/20 03:14:08;;;;;;;3.30;1.63;;;19.70;89.80;;;;;;5055822;28;20017;-81
2023/09/20 03:16:34;;;;;;;4.50;1.60;;;19.70;89.70;;;;;;5053395;28;20017;-82
2023/09/20 03:19:01;;;;;;;8.80;1.70;;;19.70;89.60;;;;;;5050057;28;20112;-81
2023/09/20 03:21:26;;;;;;;4.68;1.70;;;19.70;89.60;;;;;;5045458;28;20477;-81
2023/09/20 03:23:52;;;;;;;4.05;1.48;;;19.60;89.50;;;;;;5042629;28;20025;-81
2023/09/20 03:26:18;;;;;;;5.15;1.73;;;19.70;89.50;;;;;;5055594;28;20025;-81
2023/09/20 03:28:46;;;;;;;3.35;1.40;;;19.70;89.50;;;;;;5063930;28;20013;-82
2023/09/20 03:31:15;;;;;;;2.72;1.60;;;19.70;89.50;;;;;;5048996;28;20028;-81
2023/09/20 03:33:42;;;;;;;1.57;1.40;;;19.60;89.40;;;;;;5043960;28;20033;-81
2023/09/20 03:36:15;;;;;;;2.25;1.40;;;19.60;89.40;;;;;;5050488;28;20083;-81
2023/09/20 03:38:41;;;;;;;7.80;1.55;;;19.60;90.00;;;;;;5044750;28;20036;-81
2023/09/20 03:41:07;;;;;;;2.40;1.58;;;19.60;90.00;;;;;;5052388;28;20017;-82
2023/09/20 03:43:33;;;;;;;4.13;1.77;;;19.60;89.20;;;;;;5051042;28;20100;-81
2023/09/20 03:45:59;;;;;;;1.55;1.45;;;19.60;89.20;;;;;;5038978;28;20142;-81
2023/09/20 03:48:25;;;;;;;6.55;1.70;;;19.60;89.10;;;;;;5061749;28;20095;-81
2023/09/20 03:50:51;;;;;;;3.58;1.83;;;19.60;89.10;;;;;;5047820;28;20112;-81
2023/09/20 03:53:16;;;;;;;2.88;1.33;;;19.60;89.10;;;;;;5051954;28;20060;-81
2023/09/20 03:55:43;;;;;;;6.22;1.70;;;19.60;89.10;;;;;;5058644;28;20021;-81
2023/09/20 03:58:09;;;;;;;3.67;1.83;;;19.60;89.10;;;;;;5054583;28;20016;-82
2023/09/20 04:00:36;;;;;;;2.55;1.70;;;19.60;89.00;;;;;;5040027;28;20029;-81
2023/09/20 04:03:05;;;;;;;4.53;1.77;;;19.60;89.00;;;;;;5060332;28;20140;-82
2023/09/20 04:05:33;;;;;;;2.53;1.50;;;19.60;89.00;;;;;;5048342;28;20017;-81
2023/09/20 04:08:00;;;;;;;2.03;1.42;;;19.60;89.00;;;;;;5074405;28;20013;-81
2023/09/20 04:10:26;;;;;;;1.77;1.40;;;19.60;89.00;;;;;;5054992;28;20111;-81
2023/09/20 04:12:52;;;;;;;7.72;1.60;;;19.60;89.00;;;;;;5056174;28;20025;-81
2023/09/20 04:15:18;;;;;;;2.78;1.48;;;19.60;88.90;;;;;;5053901;28;20427;-81
2023/09/20 04:17:43;;;;;;;4.97;1.70;;;19.60;88.90;;;;;;5073422;28;20048;-82
2023/09/20 04:20:11;;;;;;;6.18;1.60;;;19.60;88.80;;;;;;5056578;28;20032;-80
2023/09/20 04:22:40;;;;;;;7.68;1.58;;;19.60;88.80;;;;;;5059756;28;20048;-81
2023/09/20 04:25:10;;;;;;;3.03;1.70;;;19.60;88.80;;;;;;5058445;28;20028;-82
2023/09/20 04:27:36;;;;;;;8.48;1.63;;;19.60;88.80;;;;;;5064606;28;20013;-81
2023/09/20 04:30:01;;;;;;;3.13;1.88;;;19.60;88.70;;;;;;5059812;28;20016;-81
2023/09/20 04:32:27;;;;;;;4.57;1.73;;;19.60;88.70;;;;;;5057309;28;20012;-81
2023/09/20 04:34:53;;;;;;;10.13;1.83;;;19.60;89.40;;;;;;5053093;28;20079;-81
2023/09/20 04:37:20;;;;;;;4.57;1.90;;;19.60;88.60;;;;;;5051316;28;20034;-81
2023/09/20 04:39:46;;;;;;;5.57;1.95;;;19.60;88.60;;;;;;5053254;28;20056;-82
2023/09/20 04:42:13;;;;;;;4.00;1.50;;;19.50;88.50;;;;;;5056414;28;20031;-81
2023/09/20 04:44:39;;;;;;;3.50;1.60;;;19.60;88.40;;;;;;5050601;28;20020;-81
2023/09/20 04:47:04;;;;;;;2.63;1.48;;;19.60;88.40;;;;;;5072661;28;20112;-81
2023/09/20 04:49:30;;;;;;;2.58;1.50;;;19.60;88.40;;;;;;5071523;28;20031;-81
2023/09/20 04:52:00;;;;;;;2.15;1.38;;;19.60;88.30;;;;;;5059827;28;20519;-81
2023/09/20 04:54:28;;;;;;;2.97;1.48;;;19.60;88.30;;;;;;5070754;28;20444;-81
2023/09/20 04:56:54;;;;;;;2.13;1.30;;;19.60;88.20;;;;;;5045195;28;20056;-81
2023/09/20 04:59:22;;;;;;;2.80;1.60;;;19.50;88.20;;;;;;5066710;28;20700;-81
2023/09/20 05:01:49;;;;;;;1.92;1.58;;;19.60;88.10;;;;;;5066841;28;20477;-82
2023/09/20 05:04:15;;;;;;;4.22;1.80;;;19.60;88.10;;;;;;5043255;28;20386;-81
2023/09/20 05:06:42;;;;;;;6.07;2.25;;;19.50;88.00;;;;;;5055144;28;20492;-81
2023/09/20 05:09:09;;;;;;;2.97;1.73;;;19.50;88.00;;;;;;5050557;28;20093;-81
2023/09/20 05:11:35;;;;;;;3.03;2.00;;;19.50;88.00;;;;;;5054792;28;20058;-81
2023/09/20 05:14:01;;;;;;;3.80;1.80;;;19.50;87.90;;;;;;5068553;28;20155;-82
2023/09/20 05:16:27;;;;;;;4.18;1.92;;;19.50;87.80;;;;;;5052332;28;20491;-82
2023/09/20 05:18:53;;;;;;;3.13;1.90;;;19.50;87.80;;;;;;5047394;28;20052;-81
2023/09/20 05:21:18;;;;;;;3.35;1.58;;;19.50;87.80;;;;;;5056494;28;20473;-81
2023/09/20 05:23:44;;;;;;;5.03;2.08;;;19.50;87.80;;;;;;5051693;28;20112;-82
2023/09/20 05:26:10;;;;;;;8.65;2.70;;;19.50;87.70;;;;;;5062292;28;20024;-81
2023/09/20 05:28:36;;;;;;;4.25;1.90;;;19.50;87.70;;;;;;5051862;28;20059;-81
2023/09/20 05:31:05;;;;;;;5.10;2.08;;;19.50;87.80;;;;;;5071508;28;20025;-81
2023/09/20 05:33:31;;;;;;;2.88;1.55;;;19.50;87.70;;;;;;5045228;28;20021;-81
2023/09/20 05:35:58;;;;;;;3.63;1.90;;;19.50;87.70;;;;;;5065877;28;20118;-81
2023/09/20 05:38:27;;;;;;;3.83;1.92;;;19.50;87.60;;;;;;5049136;28;20025;-81
2023/09/20 05:40:53;;;;;;;11.50;1.77;;;19.50;87.60;;;;;;5053399;28;20028;-81
2023/09/20 05:43:19;;;;;;;4.43;2.35;;;19.50;87.60;;;;;;5049672;28;20016;-81
2023/09/20 05:45:45;;;;;;;6.03;2.15;;;19.50;87.60;;;;;;5048122;28;20112;-80
2023/09/20 05:48:10;;;;;;;9.80;1.90;;;19.50;87.50;;;;;;5061828;28;20354;-80
2023/09/20 05:50:37;;;;;;;3.78;1.80;;;19.50;87.70;;;;;;5049965;28;20017;-81
2023/09/20 05:53:07;;;;;;;2.97;1.73;;;19.50;87.50;;;;;;5042053;28;20401;-81
2023/09/20 05:55:40;;;;;;;3.33;1.65;;;19.50;88.30;;;;;;5056154;28;20554;-82
2023/09/20 05:58:06;;;;;;;4.13;1.90;;;19.50;87.50;;;;;;5059306;28;20028;-81
2023/09/20 06:00:34;;;;;;;2.30;1.63;;;19.50;87.60;;;;;;5058907;28;20043;-81
2023/09/20 06:03:00;;;;;;;5.55;1.77;;;19.50;87.60;;;;;;5063349;28;20052;-82
2023/09/20 06:05:26;;;;;;;3.15;1.73;;;19.50;87.60;;;;;;5051273;28;20051;-82
2023/09/20 06:07:57;;;;;;;4.65;1.58;;;19.50;87.60;;;;;;5043765;28;20071;-81
2023/09/20 06:10:23;;;;;;;2.58;1.77;;;19.50;87.60;;;;;;5045212;28;20020;-82
2023/09/20 06:12:52;;;;;;;3.10;1.80;;;19.50;87.60;;;;;;5062087;28;20025;-82
2023/09/20 06:15:18;;;;;;;3.53;1.50;;;19.50;87.60;;;;;;5041443;28;20448;-81
2023/09/20 06:17:47;;;;;;;4.90;2.00;;;19.50;87.70;;;;;;5066080;28;20028;-81
2023/09/20 06:20:19;;;;;;;2.97;1.67;;;19.50;87.70;;;;;;5053417;28;20059;-81
2023/09/20 06:22:48;;;;;;;8.48;2.05;;;19.50;87.80;;;;;;5041504;28;20033;-82
2023/09/20 06:25:15;;;;;;;2.85;1.88;;;19.50;87.90;;;;;;5048436;28;20111;-81
2023/09/20 06:27:41;;;;;;;2.80;1.98;;;19.50;87.90;;;;;;5052894;28;20024;-81
2023/09/20 06:30:13;;;;;;;5.68;1.63;;;19.50;88.00;;;;;;5045481;28;20025;-83
2023/09/20 06:32:40;;;;;;;11.23;1.70;;;19.50;88.00;;;;;;5050635;28;20031;-83
2023/09/20 06:35:07;;;;;;;2.88;1.63;;;19.50;88.10;;;;;;5043190;28;20142;-81
2023/09/20 06:37:34;;;;;;;2.78;1.60;;;19.50;88.20;;;;;;5041866;28;20100;-83
2023/09/20 06:40:00;;;;;;;3.03;1.70;;;19.50;88.20;;;;;;5052609;28;20024;-82
2023/09/20 06:42:29;;;;;;;4.43;1.85;;;19.60;88.40;;;;;;5044405;28;20024;-80
2023/09/20 06:44:55;;;;;;;3.03;1.60;;;19.50;89.20;;;;;;5054297;28;20013;-83
2023/09/20 06:47:22;;;;;;;5.38;1.67;;;19.50;88.50;;;;;;5047107;28;20032;-81
2023/09/20 06:49:47;;;;;;;6.95;1.60;;;19.50;88.70;;;;;;5049268;28;20020;-81
2023/09/20 06:52:13;;;;;;;4.97;1.95;;;19.60;89.00;;;;;;5046152;28;20028;-80
2023/09/20 06:54:39;;;;;;;3.67;1.58;;;19.60;89.10;;;;;;5047928;28;20385;-81
2023/09/20 06:57:05;;;;;;;5.10;1.85;;;19.50;89.10;;;;;;5045115;28;20035;-81
2023/09/20 06:59:36;;;;;;;3.97;1.70;;;19.60;89.30;;;;;;5052481;28;20035;-81
2023/09/20 07:02:03;;;;;;;5.90;2.25;;;19.50;89.30;;;;;;5044336;28;20082;-81
2023/09/20 07:04:31;;;;;;;2.95;1.65;;;19.60;89.40;;;;;;5053390;28;20365;-81
2023/09/20 07:06:57;;;;;;;3.45;2.05;;;19.60;89.50;;;;;;5061068;28;20008;-82
2023/09/20 07:10:09;;;;;;;3.33;1.83;;;19.60;89.50;;;;;;5064279;28;20071;-80
2023/09/20 07:12:43;;;;;;;6.38;2.15;;;19.60;89.50;;;;;;5001134;28;20030;-81
2023/09/20 07:15:16;;;;;;;8.73;2.10;;;19.60;89.60;;;;;;4992550;28;20026;-81
2023/09/20 07:17:42;;;;;;;4.75;2.30;;;19.60;89.60;;;;;;5002299;28;20034;-81
2023/09/20 07:20:14;;;;;;;9.48;2.80;;;19.60;89.60;;;;;;4982733;28;20038;-81
2023/09/20 07:22:42;;;;;;;6.75;2.08;;;19.60;89.60;;;;;;5000237;28;20063;-81
2023/09/20 07:25:16;;;;;;;4.82;2.28;;;19.60;89.50;;;;;;4980267;28;20109;-81
2023/09/20 07:27:48;;;;;;;5.75;2.20;;;19.60;89.50;;;;;;4982735;28;20048;-82
2023/09/20 07:30:18;;;;;;;5.47;2.60;;;19.60;89.50;;;;;;4993313;28;20014;-82
2023/09/20 07:32:48;;;;;;;4.47;2.58;;;19.60;89.50;;;;;;4982478;28;20580;-82
2023/09/20 07:35:26;;;;;;;6.60;3.22;;;19.60;89.50;;;;;;4992982;28;20080;-81
2023/09/20 07:37:56;;;;;;;12.18;3.50;;;19.60;89.50;;;;;;4996134;28;20026;-81
2023/09/20 07:40:29;;;;;;;10.07;3.40;;;19.60;89.60;;;;;;4988882;28;20382;-81
2023/09/20 07:42:59;;;;;;;13.13;3.45;;;19.60;89.60;;;;;;4987128;28;20129;-81
2023/09/20 07:45:27;;;;;;;;;;;19.60;89.60;;;;;;4995066;28;20157;-82
2023/09/20 07:47:52;;;;;;;6.57;3.40;;;19.60;89.70;;;;;;4998688;28;19917;-82
2023/09/20 07:50:19;;;;;;;8.65;3.10;;;19.60;89.70;;;;;;4996044;28;20029;-82
2023/09/20 07:52:45;;;;;;;9.70;3.00;;;19.60;89.70;;;;;;4987951;28;20065;-82
2023/09/20 07:55:11;;;;;;;13.35;3.45;;;19.60;89.70;;;;;;4996314;28;20054;-80
2023/09/20 07:57:38;;;;;;;10.38;3.67;;;19.60;89.70;;;;;;4997831;28;20073;-82
2023/09/20 08:00:07;;;;;;;8.75;3.65;;;19.60;89.70;;;;;;5001533;28;20044;-80
2023/09/20 08:02:33;;;;;;;5.82;3.10;;;19.60;89.70;;;;;;4994735;28;20093;-82
2023/09/20 08:04:59;;;;;;;7.10;2.70;;;19.60;89.80;;;;;;5002142;28;20033;-82
2023/09/20 08:07:24;;;;;;;9.05;2.78;;;19.60;89.80;;;;;;5002469;28;20029;-81
2023/09/20 08:09:51;;;;;;;3.88;2.83;;;19.60;89.90;;;;;;4988962;28;20025;-82
2023/09/20 08:12:17;;;;;;;13.30;3.13;;;19.70;90.10;;;;;;5004608;28;20022;-83
2023/09/20 08:14:42;;;;;;;5.22;3.05;;;19.60;89.90;;;;;;4987380;28;20033;-81
2023/09/20 08:19:52;;;;;;;9.27;3.45;;;19.60;89.20;;;;;;5060002;28;20082;-87
2023/09/20 08:22:18;;;;;;;7.05;2.92;;;19.60;89.60;;;;;;5058661;28;20028;-87
2023/09/20 09:00:35;;;;;;;7.53;2.75;;;19.60;90.40;;;;;;5070682;28;20039;-87
2023/09/20 09:03:03;;;;;;;7.78;2.03;;;19.60;90.40;;;;;;5058990;28;20388;-87
2023/09/20 09:05:30;;;;;;;7.53;2.80;;;19.60;90.40;;;;;;5047507;28;20116;-87
2023/09/20 09:08:01;;;;;;;6.43;1.98;;;19.60;90.40;;;;;;5048879;28;20028;-86
2023/09/20 09:10:28;;;;;;;2.55;2.00;;;19.50;90.50;;;;;;5059430;28;20107;-88
2023/09/20 09:12:55;;;;;;;4.05;1.60;;;19.50;90.30;;;;;;5053198;28;20543;-87
2023/09/20 09:15:22;;;;;;;3.40;1.65;;;19.60;90.30;;;;;;5050753;28;20036;-86
2023/09/20 09:17:48;;;;;;;2.58;1.55;;;19.60;90.40;;;;;;5051885;28;20024;-86
2023/09/20 09:20:16;;;;;;;3.75;2.03;;;19.60;90.40;;;;;;5058049;28;20044;-87
2023/09/20 09:22:44;;;;;;;2.65;1.40;;;19.60;90.50;;;;;;5062165;28;20033;-87
2023/09/20 09:25:18;;;;;;;3.30;1.33;;;19.60;90.40;;;;;;5049225;28;20405;-86
2023/09/20 09:27:46;;;;;;;2.30;1.63;;;19.60;90.40;;;;;;5066534;28;20025;-88
2023/09/20 09:30:17;;;;;;;3.65;1.80;;;19.60;90.40;;;;;;5064897;28;20225;-86
2023/09/20 09:32:47;;;;;;;2.97;1.75;;;19.60;90.20;;;;;;5058676;28;20025;-86
2023/09/20 09:35:15;;;;;;;4.60;1.75;;;19.60;90.20;;;;;;5041914;28;20105;-87
2023/09/20 09:37:43;;;;;;;5.20;1.88;;;19.60;90.20;;;;;;5050784;28;20202;-87
2023/09/20 09:40:09;;;;;;;5.57;1.98;;;19.60;90.20;;;;;;5049330;28;20124;-87
2023/09/20 09:42:36;;;;;;;4.03;1.75;;;19.60;90.20;;;;;;5042607;28;20071;-86
2023/09/20 09:45:02;;;;;;;3.25;1.90;;;19.60;90.20;;;;;;5042394;28;20031;-88
2023/09/20 09:47:30;;;;;;;4.65;1.75;;;19.60;90.70;;;;;;5042041;28;20021;-86
2023/09/20 09:49:58;;;;;;;4.18;1.77;;;19.60;90.20;;;;;;5062663;28;20017;-86
2023/09/20 09:52:24;;;;;;;4.75;1.85;;;19.70;90.10;;;;;;5057979;28;20017;-86
2023/09/20 09:54:52;;;;;;;1.60;1.50;;;19.70;90.00;;;;;;5049427;28;20033;-86
2023/09/20 09:57:18;;;;;;;7.60;1.80;;;19.70;89.60;;;;;;5046677;28;20024;-87
2023/09/20 09:59:46;;;;;;;3.10;1.90;;;19.70;89.50;;;;;;5045565;28;20082;-87
2023/09/20 10:02:20;;;;;;;5.35;2.17;;;19.70;89.70;;;;;;5043701;28;20378;-85
2023/09/20 10:05:02;;;;;;;3.47;1.75;;;19.70;89.70;;;;;;5044302;28;20063;-87
2023/09/20 10:07:35;;;;;;;3.45;1.80;;;19.70;89.80;;;;;;5044190;28;20045;-87
2023/09/20 10:10:13;;;;;;;7.00;1.92;;;19.70;89.10;;;;;;5051319;28;20024;-87
2023/09/20 10:12:45;;;;;;;4.95;1.85;;;19.70;89.50;;;;;;5042684;28;20029;-86
2023/09/20 10:15:14;;;;;;;4.38;2.08;;;19.70;89.90;;;;;;5045772;28;20028;-86
2023/09/20 10:17:44;;;;;;;6.72;1.88;;;19.80;90.10;;;;;;5053468;28;20027;-86
2023/09/20 10:20:10;;;;;;;3.35;1.63;;;19.80;90.10;;;;;;5044954;28;20024;-87
2023/09/20 10:22:46;;;;;;;4.30;1.70;;;19.80;90.30;;;;;;5040701;28;20047;-88
2023/09/20 10:25:31;;;;;;;3.40;1.90;;;19.80;90.40;;;;;;5045228;28;20103;-85
2023/09/20 10:27:57;;;;;;;3.75;2.00;;;19.80;90.40;;;;;;5050319;28;20025;-86
2023/09/20 10:30:23;;;;;;;3.13;1.80;;;19.80;90.30;;;;;;5044997;28;20074;-87
2023/09/20 10:32:54;;;;;;;3.05;2.10;;;19.80;90.30;;;;;;5067454;28;20025;-86
2023/09/20 10:35:27;;;;;;;6.38;2.00;;;19.80;90.40;;;;;;5047502;28;20024;-86
2023/09/20 10:38:07;;;;;;;2.53;1.63;;;19.90;90.50;;;;;;5046527;28;20028;-86
2023/09/20 10:40:45;;;;;;;1.95;1.52;;;19.90;90.50;;;;;;5040887;28;20025;-87
2023/09/20 10:43:14;;;;;;;2.78;2.03;;;19.90;90.60;;;;;;5042543;28;20120;-86
2023/09/20 10:45:40;;;;;;;4.38;1.80;;;19.90;90.80;;;;;;5045036;28;20028;-86
2023/09/20 10:48:14;;;;;;;5.38;2.00;;;19.90;90.70;;;;;;5060336;28;20039;-85
2023/09/20 10:50:57;;;;;;;3.30;1.83;;;20.00;90.60;;;;;;5055411;28;20032;-83
2023/09/20 10:53:50;;;;;;;5.60;2.08;;;19.90;90.60;;;;;;5048009;28;20020;-86
2023/09/20 10:56:43;;;;;;;4.88;2.05;;;19.90;90.70;;;;;;5043670;28;20025;-85
2023/09/20 10:59:16;;;;;;;3.22;1.60;;;19.90;90.70;;;;;;5048044;28;20036;-86
2023/09/20 11:01:59;;;;;;;1.92;1.50;;;19.90;90.70;;;;;;5065356;28;20694;-87
2023/09/20 11:04:25;;;;;;;5.47;1.63;;;19.90;90.90;;;;;;5048197;28;20550;-87
2023/09/20 11:06:52;;;;;;;3.63;1.50;;;20.00;90.90;;;;;;5061201;28;20472;-87
2023/09/20 11:09:20;;;;;;;3.20;1.30;;;20.00;90.90;;;;;;5038152;28;20726;-85
2023/09/20 11:11:47;;;;;;;4.88;1.58;;;20.00;90.90;;;;;;5035184;28;20079;-86
2023/09/20 11:14:12;;;;;;;3.83;1.65;;;20.00;90.90;;;;;;5050879;28;20116;-86
2023/09/20 11:16:41;;;;;;;2.70;1.50;;;20.00;90.90;;;;;;5045752;28;20115;-86
2023/09/20 11:19:13;;;;;;;3.20;1.80;;;20.00;91.00;;;;;;5050850;28;20020;-86
2023/09/20 11:21:41;;;;;;;3.25;1.90;;;20.10;91.10;;;;;;5056454;28;20033;-86
2023/09/20 11:24:15;;;;;;;5.05;1.40;;;20.10;90.90;;;;;;5047000;28;20033;-87
2023/09/20 11:26:43;;;;;;;2.90;1.33;;;20.10;90.60;;;;;;5040202;28;20020;-85
2023/09/20 11:29:09;;;;;;;2.33;1.38;;;20.10;90.60;;;;;;5049556;28;20021;-87
2023/09/20 11:31:37;;;;;;;6.45;1.55;;;20.10;90.60;;;;;;5061228;28;20013;-86
2023/09/20 11:34:04;;;;;;;8.07;1.88;;;20.10;90.50;;;;;;5047617;28;20025;-88
2023/09/20 11:36:39;;;;;;;2.72;1.70;;;20.20;90.60;;;;;;5047958;28;20397;-87
2023/09/20 11:39:05;;;;;;;4.18;1.40;;;20.10;90.70;;;;;;5043021;28;20474;-88
2023/09/20 11:41:36;;;;;;;4.10;1.17;;;20.20;90.80;;;;;;5049073;28;20036;-87
2023/09/20 11:44:05;;;;;;;1.95;1.33;;;20.20;90.70;;;;;;5038428;28;20393;-87
2023/09/20 11:46:35;;;;;;;1.98;1.20;;;20.30;90.40;;;;;;5043272;28;20021;-87
2023/09/20 11:49:08;;;;;;;1.95;1.27;;;20.20;90.50;;;;;;5045236;28;20025;-85
2023/09/20 11:51:36;;;;;;;2.55;1.30;;;20.30;90.50;;;;;;5059286;28;20024;-86
2023/09/20 11:54:06;;;;;;;2.55;1.23;;;20.30;90.60;;;;;;5043787;28;20124;-87
2023/09/20 11:56:34;;;;;;;3.58;1.20;;;20.30;90.50;;;;;;5040753;28;20091;-88
2023/09/20 11:59:09;;;;;;;1.83;1.25;;;20.30;90.70;;;;;;5060982;28;20025;-87
2023/09/20 12:01:40;;;;;;;2.08;1.38;;;20.30;90.70;;;;;;5046281;28;20485;-85
2023/09/20 12:04:06;;;;;;;2.13;1.50;;;20.30;90.70;;;;;;5044536;28;20032;-86
2023/09/20 12:06:32;;;;;;;3.95;1.30;;;20.30;90.70;;;;;;5062183;28;20040;-86
2023/09/20 12:09:00;;;;;;;3.10;1.30;;;20.30;90.70;;;;;;5048143;28;20094;-86
2023/09/20 12:11:26;;;;;;;4.50;1.27;;;20.40;90.70;;;;;;5050164;28;20025;-86
2023/09/20 12:13:52;;;;;;;4.05;1.40;;;20.40;90.40;;;;;;5062636;28;20481;-86
2023/09/20 12:16:18;;;;;;;1.75;1.20;;;20.40;90.60;;;;;;5043628;28;20035;-87
2023/09/20 12:18:44;;;;;;;2.20;1.50;;;20.40;90.70;;;;;;5042604;28;20440;-87
2023/09/20 12:21:10;;;;;;;1.40;1.23;;;20.50;90.80;;;;;;5047839;28;20067;-87
2023/09/20 12:23:39;;;;;;;4.97;1.67;;;20.40;90.50;;;;;;5059724;28;20017;-86
2023/09/20 12:26:05;;;;;;;4.35;1.30;;;20.50;90.50;;;;;;5052273;28;20021;-87
2023/09/20 12:28:31;;;;;;;1.13;0.90;;;20.50;90.60;;;;;;5051767;28;20036;-90
2023/09/20 12:30:58;;;;;;;2.00;1.00;;;20.50;90.60;;;;;;5047908;28;20020;-89
2023/09/20 12:33:27;;;;;;;2.90;1.25;;;20.50;90.60;;;;;;5055614;28;20508;-87
2023/09/20 12:35:54;;;;;;;4.00;1.52;;;20.50;90.50;;;;;;5045532;28;20024;-87
2023/09/20 12:38:20;;;;;;;3.78;1.40;;;20.50;90.40;;;;;;5041919;28;20057;-88
2023/09/20 12:40:47;;;;;;;6.68;1.70;;;20.50;90.40;;;;;;5058084;28;20058;-90
2023/09/20 12:43:15;;;;;;;3.15;1.50;;;20.60;90.40;;;;;;5047911;28;20029;-89
2023/09/20 12:45:46;;;;;;;4.55;1.25;;;20.60;90.00;;;;;;5045715;28;20055;-89
2023/09/20 12:48:12;;;;;;;1.30;1.20;;;20.60;90.20;;;;;;5044607;28;20043;-91
2023/09/20 12:50:38;;;;;;;4.63;1.40;;;20.60;90.10;;;;;;5050829;28;20462;-89
2023/09/20 12:53:08;;;;;;;1.27;1.17;;;20.60;90.30;;;;;;5057179;28;20029;-88
2023/09/20 12:55:38;;;;;;;;;;;20.60;90.30;;;;;;5047347;28;20020;-87
2023/09/20 12:58:08;;;;;;;3.30;1.17;;;20.60;90.20;;;;;;5045408;28;19909;-90
2023/09/20 13:00:34;;;;;;;1.52;1.20;;;20.60;90.20;;;;;;5043300;28;20080;-90
2023/09/20 13:03:01;;;;;;;3.78;1.30;;;20.60;90.30;;;;;;5041370;28;20041;-89
2023/09/20 13:05:27;;;;;;;3.55;1.20;;;20.70;90.20;;;;;;5048497;28;20028;-89
2023/09/20 13:07:56;;;;;;;2.13;1.27;;;20.60;90.20;;;;;;5050039;28;20116;-88
2023/09/20 13:10:22;;;;;;;2.47;1.50;;;20.60;90.20;;;;;;5045623;28;20031;-88
2023/09/20 13:12:48;;;;;;;6.80;1.05;;;20.60;90.00;;;;;;5058159;28;20021;-90
2023/09/20 13:15:14;;;;;;;2.88;1.30;;;20.70;90.10;;;;;;5040372;28;20518;-89
2023/09/20 13:17:44;;;;;;;4.22;1.20;;;20.70;90.10;;;;;;5049554;28;20401;-87
2023/09/20 13:20:13;;;;;;;;;;;20.60;90.10;;;;;;5054022;28;20653;-87
2023/09/20 13:22:42;;;;;;;1.20;1.10;;;20.60;90.10;;;;;;5042543;28;19965;-89
2023/09/20 13:25:09;;;;;;;5.07;1.00;;;20.60;90.10;;;;;;5050079;28;20028;-87
2023/09/20 13:27:35;;;;;;;5.75;1.55;;;20.60;90.10;;;;;;5059255;28;20020;-87
2023/09/20 13:30:09;;;;;;;4.40;1.58;;;20.60;89.90;;;;;;5050004;28;20047;-85
2023/09/20 13:32:39;;;;;;;1.83;1.55;;;20.60;90.00;;;;;;5058711;28;20023;-89
2023/09/20 13:35:17;;;;;;;2.07;1.30;;;20.70;89.90;;;;;;5050778;28;20477;-91
2023/09/20 13:37:45;;;;;;;1.42;1.05;;;20.70;89.10;;;;;;5041259;28;20267;-88
2023/09/20 13:40:18;;;;;;;2.45;1.20;;;20.70;89.70;;;;;;5062553;28;20035;-87
2023/09/20 13:42:45;;;;;;;1.65;1.05;;;20.70;89.60;;;;;;5047169;28;20032;-90
2023/09/20 13:45:13;;;;;;;2.22;1.30;;;20.70;89.70;;;;;;5047276;28;20029;-89
2023/09/20 13:47:42;;;;;;;2.45;1.20;;;20.70;89.50;;;;;;5059030;28;20035;-88
2023/09/20 13:50:09;;;;;;;1.63;1.30;;;20.70;89.30;;;;;;5045416;28;20055;-88
2023/09/20 13:52:35;;;;;;;1.80;1.20;;;20.70;89.30;;;;;;5062202;28;20037;-87
2023/09/20 13:55:05;;;;;;;2.28;1.10;;;20.70;89.40;;;;;;5050904;28;20025;-87
2023/09/20 13:57:37;;;;;;;6.15;1.30;;;20.70;89.50;;;;;;5052534;28;20025;-90
2023/09/20 14:00:10;;;;;;;1.40;1.10;;;20.70;89.50;;;;;;5040429;28;20055;-90
2023/09/20 14:02:40;;;;;;;1.77;1.02;;;20.70;89.30;;;;;;5043631;28;20577;-88
2023/09/20 14:05:14;;;;;;;1.20;1.00;;;20.70;89.40;;;;;;5046783;28;20119;-88
2023/09/20 14:07:44;;;;;;;2.92;1.25;;;20.70;89.50;;;;;;5042849;28;20481;-90
2023/09/20 14:10:16;;;;;;;2.50;1.10;;;20.70;89.20;;;;;;5046181;28;20381;-88
2023/09/20 14:12:42;;;;;;;1.45;1.10;;;20.80;87.70;;;;;;5064325;28;20124;-88
2023/09/20 14:15:14;;;;;;;1.65;1.17;;;20.80;88.50;;;;;;5056401;28;20402;-88
2023/09/20 14:17:44;;;;;;;1.80;1.15;;;20.70;88.80;;;;;;5047750;28;20025;-88
2023/09/20 14:20:15;;;;;;;4.30;1.40;;;20.70;89.20;;;;;;5049085;28;20085;-90
2023/09/20 14:22:51;;;;;;;3.50;1.25;;;20.70;87.90;;;;;;5042670;28;20071;-91
2023/09/20 14:25:17;;;;;;;9.43;1.30;;;20.80;88.70;;;;;;5050545;28;20021;-88
2023/09/20 14:27:43;;;;;;;3.17;1.27;;;20.80;89.10;;;;;;5063163;28;20013;-90
2023/09/20 14:30:16;;;;;;;5.78;1.10;;;20.80;88.90;;;;;;5043985;28;20029;-90
2023/09/20 14:32:46;;;;;;;2.15;1.10;;;20.70;89.00;;;;;;5046071;28;20036;-88
2023/09/20 14:35:13;;;;;;;1.95;1.10;;;20.80;89.80;;;;;;5046947;28;20028;-88
2023/09/20 14:37:51;;;;;;;7.05;1.83;;;20.80;88.40;;;;;;5061337;28;20033;-90
2023/09/20 14:40:17;;;;;;;1.15;1.00;;;20.80;88.70;;;;;;5044513;28;20036;-87
2023/09/20 14:42:48;;;;;;;2.28;1.33;;;20.80;89.00;;;;;;5043838;28;20032;-89
2023/09/20 14:45:22;;;;;;;3.88;1.10;;;20.80;88.50;;;;;;5047220;28;20055;-88
2023/09/20 14:47:53;;;;;;;2.45;1.15;;;20.80;89.20;;;;;;5046137;28;20024;-89
2023/09/20 14:50:19;;;;;;;2.90;1.25;;;20.70;89.20;;;;;;5057881;28;20023;-89
2023/09/20 14:52:46;;;;;;;2.03;1.20;;;20.70;89.30;;;;;;5038225;28;20032;-90
2023/09/20 14:55:14;;;;;;;2.38;1.10;;;20.70;89.10;;;;;;5054446;28;20049;-89
2023/09/20 14:57:42;;;;;;;1.60;1.10;;;20.70;88.40;;;;;;5038605;28;20780;-89
2023/09/20 15:00:16;;;;;;;1.88;0.90;;;20.80;88.10;;;;;;5049636;28;20016;-89
2023/09/20 15:02:45;;;;;;;2.35;1.05;;;20.70;88.50;;;;;;5044102;28;20065;-88
2023/09/20 15:05:13;;;;;;;0.75;0.75;;;20.80;88.70;;;;;;5063362;28;20087;-88
2023/09/20 15:07:43;;;;;;;5.18;1.00;;;20.70;88.40;;;;;;5046698;28;20029;-91
2023/09/20 15:10:12;;;;;;;1.55;1.17;;;20.80;87.60;;;;;;5052534;28;20013;-88
2023/09/20 15:12:41;;;;;;;6.83;1.27;;;20.80;87.40;;;;;;5037894;28;20033;-88
2023/09/20 15:15:07;;;;;;;5.18;1.23;;;20.70;88.20;;;;;;5041657;28;20668;-88
2023/09/20 15:17:33;;;;;;;2.58;1.00;;;20.70;87.90;;;;;;5036196;28;20078;-88
2023/09/20 15:20:00;;;;;;;1.77;1.10;;;20.70;87.50;;;;;;5052107;28;20024;-89
2023/09/20 15:22:30;;;;;;;3.10;1.13;;;20.70;87.70;;;;;;5048423;28;20107;-88
2023/09/20 15:24:56;;;;;;;4.82;1.27;;;20.70;87.90;;;;;;5040097;28;20032;-89
2023/09/20 15:27:22;;;;;;;1.60;1.15;;;20.70;87.90;;;;;;5050519;28;20020;-88
2023/09/20 15:29:48;;;;;;;3.15;1.20;;;20.70;87.60;;;;;;5040353;28;20026;-87
2023/09/20 15:32:13;;;;;;;2.50;1.42;;;20.70;87.50;;;;;;5043101;28;20151;-94
2023/09/20 15:34:39;;;;;;;1.98;1.23;;;20.80;87.60;;;;;;5048431;28;20032;-93
2023/09/20 15:37:05;;;;;;;2.03;1.17;;;20.80;86.90;;;;;;5048642;28;20112;-93
2023/09/20 15:39:35;;;;;;;2.15;1.10;;;20.80;86.90;;;;;;5067863;28;20037;-92
2023/09/20 15:42:03;;;;;;;2.25;1.30;;;20.70;87.00;;;;;;5065563;28;20028;-90
2023/09/20 15:44:29;;;;;;;1.65;1.00;;;20.80;86.50;;;;;;5043627;28;20021;-92
2023/09/20 15:46:55;;;;;;;1.20;1.10;;;20.70;86.60;;;;;;5058736;28;20024;-83
2023/09/20 15:49:21;;;;;;;2.63;1.23;;;20.80;86.80;;;;;;5051239;28;20048;-82
2023/09/20 15:51:46;;;;;;;9.93;1.40;;;20.70;87.10;;;;;;5053689;28;20242;-83
2023/09/20 15:54:13;;;;;;;3.75;1.17;;;20.70;87.30;;;;;;5053012;28;20506;-81
2023/09/20 15:56:39;;;;;;;2.63;1.25;;;20.60;87.40;;;;;;5048819;28;20477;-81
2023/09/20 15:59:05;;;;;;;1.65;1.02;;;20.60;87.50;;;;;;5071826;28;20371;-81
2023/09/20 16:01:31;;;;;;;3.53;1.40;;;20.60;88.30;;;;;;5044535;28;20032;-81
2023/09/20 16:03:58;;;;;;;1.65;1.00;;;20.60;87.60;;;;;;5045630;28;20523;-82
2023/09/20 16:06:24;;;;;;;1.52;1.13;;;20.60;87.70;;;;;;5051408;28;20086;-80
2023/09/20 16:08:53;;;;;;;8.73;1.20;;;20.60;87.70;;;;;;5051265;28;20081;-81
2023/09/20 16:11:19;;;;;;;3.25;1.20;;;20.60;87.80;;;;;;5065494;28;20029;-81
2023/09/20 16:13:45;;;;;;;3.50;1.48;;;20.60;87.80;;;;;;5047123;28;20528;-81
2023/09/20 16:16:13;;;;;;;1.20;1.08;;;20.50;87.80;;;;;;5067419;28;20032;-81
2023/09/20 16:18:40;;;;;;;1.52;1.20;;;20.50;88.70;;;;;;5050050;28;20022;-81
2023/09/20 16:21:06;;;;;;;9.57;1.52;;;20.50;88.00;;;;;;5058806;28;20050;-81
2023/09/20 16:23:32;;;;;;;2.33;1.52;;;20.50;88.00;;;;;;5066756;28;20067;-82
2023/09/20 16:25:58;;;;;;;2.25;1.58;;;20.50;88.10;;;;;;5065158;28;20171;-82
2023/09/20 16:28:23;;;;;;;2.20;1.30;;;20.50;88.10;;;;;;5059015;28;20498;-82
2023/09/20 16:30:52;;;;;;;1.45;1.00;;;20.50;88.20;;;;;;5047061;28;20033;-81
2023/09/20 16:33:18;;;;;;;1.35;1.20;;;20.50;88.20;;;;;;5060574;28;20021;-81